Time;durP1;ratioP1;P1;durP2;ratioP2;P2;SDS_P1;SDS_P2;PMS_P1;PMS_P2;Temp;Humidity;BMP_temperature;BMP_pressure;BME280_temperature;BME280_humidity;BME280_pressure;Samples;Min_cycle;Max_cycle;Signal;HPM_P1;HPM_P2
2022/10/01 08:01:53;;;;;;;9.30;7.95;;;;;;;13.14;100.00;100128.69;5325564;27;20169;-83
2022/10/01 08:07:14;;;;;;;8.63;7.68;;;;;;;13.19;100.00;100137.72;5324742;28;20040;-83
2022/10/01 08:09:45;;;;;;;10.75;9.65;;;;;;;13.19;100.00;100136.88;5309093;28;20151;-82
2022/10/01 08:12:18;;;;;;;11.20;8.20;;;;;;;13.19;100.00;100134.09;5304738;28;20036;-81
2022/10/01 08:14:49;;;;;;;9.63;8.52;;;;;;;13.21;100.00;100129.84;5309062;28;20527;-78
2022/10/01 08:17:21;;;;;;;8.73;7.93;;;;;;;13.29;100.00;100144.97;5310004;28;20111;-80
2022/10/01 08:19:52;;;;;;;11.35;7.30;;;;;;;13.33;100.00;100145.16;5320148;28;20015;-82
2022/10/01 08:22:23;;;;;;;9.75;7.30;;;;;;;13.37;100.00;100144.19;5320816;28;20030;-81
2022/10/01 08:24:55;;;;;;;6.45;5.45;;;;;;;13.45;100.00;100148.94;5312043;28;20039;-81
2022/10/01 08:27:27;;;;;;;7.78;6.60;;;;;;;13.45;100.00;100151.72;5320562;28;20421;-81
2022/10/01 08:29:58;;;;;;;7.88;6.00;;;;;;;13.50;100.00;100156.31;5316343;28;20352;-76
2022/10/01 08:32:30;;;;;;;6.65;5.55;;;;;;;13.50;100.00;100161.88;5309564;28;20021;-82
2022/10/01 08:35:03;;;;;;;5.93;5.05;;;;;;;13.61;100.00;100162.38;5307444;28;20016;-82
2022/10/01 08:37:35;;;;;;;5.80;5.30;;;;;;;13.60;100.00;100161.56;5297790;28;20016;-79
2022/10/01 08:40:10;;;;;;;7.65;4.95;;;;;;;13.58;100.00;100163.03;5302344;28;20081;-81
2022/10/01 08:43:05;;;;;;;4.80;4.38;;;;;;;13.58;100.00;100168.63;5309265;28;20035;-80
2022/10/01 08:45:59;;;;;;;4.90;4.40;;;;;;;13.64;100.00;100164.50;5310989;28;20039;-80
2022/10/01 08:48:52;;;;;;;4.93;3.95;;;;;;;13.65;100.00;100171.72;5297390;28;20043;-80
2022/10/01 08:51:31;;;;;;;6.13;3.83;;;;;;;13.72;100.00;100177.63;5310905;28;20046;-81
2022/10/01 08:54:25;;;;;;;6.55;4.72;;;;;;;13.76;100.00;100178.63;5321540;28;20057;-79
2022/10/01 08:57:00;;;;;;;5.18;3.47;;;;;;;13.75;100.00;100174.19;5302801;28;20021;-80
2022/10/01 08:59:34;;;;;;;5.65;3.50;;;;;;;13.81;100.00;100183.22;5307311;28;20046;-77
2022/10/01 09:02:20;;;;;;;6.40;3.35;;;;;;;13.81;100.00;100184.03;5310738;28;20024;-80
2022/10/01 09:04:55;;;;;;;4.32;3.28;;;;;;;13.89;100.00;100190.75;5313455;28;20035;-81
2022/10/01 09:07:52;;;;;;;5.60;3.55;;;;;;;13.87;100.00;100198.63;5324691;28;20058;-81
2022/10/01 09:10:48;;;;;;;8.02;4.15;;;;;;;13.90;100.00;100198.78;5302266;28;20055;-79
2022/10/01 09:13:50;;;;;;;8.95;3.80;;;;;;;14.01;100.00;100198.44;5286561;28;20028;-80
2022/10/01 09:16:46;;;;;;;8.95;4.10;;;;;;;14.06;100.00;100196.34;5294177;28;20024;-82
2022/10/01 09:19:36;;;;;;;7.70;5.38;;;;;;;14.11;100.00;100207.31;5310104;28;20383;-79
2022/10/01 09:22:34;;;;;;;10.07;4.70;;;;;;;14.19;100.00;100211.25;5308548;28;20023;-78
2022/10/01 09:25:17;;;;;;;10.18;4.75;;;;;;;14.26;100.00;100216.31;5304924;28;20028;-73
2022/10/01 09:27:50;;;;;;;16.13;5.47;;;;;;;14.34;100.00;100213.53;5304842;28;20036;-74
2022/10/01 09:30:24;;;;;;;12.13;4.70;;;;;;;14.42;100.00;100222.19;5294297;28;20491;-75
2022/10/01 09:33:31;;;;;;;8.88;4.43;;;;;;;14.48;100.00;100223.69;5287362;28;20611;-74
2022/10/01 09:36:25;;;;;;;8.32;3.83;;;;;;;14.59;100.00;100213.00;5281045;28;20501;-74
2022/10/01 09:39:30;;;;;;;10.15;4.80;;;;;;;14.71;100.00;100230.69;5303680;28;20089;-74
2022/10/01 09:42:02;;;;;;;12.68;4.60;;;;;;;14.82;100.00;100238.72;5293361;28;20127;-74
2022/10/01 09:44:34;;;;;;;10.57;4.18;;;;;;;14.81;100.00;100225.94;5282646;28;20033;-72
2022/10/01 09:47:20;;;;;;;10.70;4.05;;;;;;;14.78;100.00;100227.41;5284581;28;20059;-73
2022/10/01 09:49:51;;;;;;;12.05;3.67;;;;;;;14.69;100.00;100227.41;5289504;28;20064;-76
2022/10/01 09:52:30;;;;;;;8.48;3.15;;;;;;;14.61;100.00;100222.69;5304003;28;20497;-75
2022/10/01 09:55:16;;;;;;;13.50;3.28;;;;;;;14.65;100.00;100223.69;5283968;28;20059;-76
2022/10/01 09:58:07;;;;;;;9.60;3.20;;;;;;;14.71;100.00;100225.13;5283573;28;20427;-76
2022/10/01 10:00:39;;;;;;;12.07;4.05;;;;;;;14.89;100.00;100228.69;5282419;28;20568;-77
2022/10/01 10:03:21;;;;;;;11.80;3.15;;;;;;;15.00;100.00;100235.53;5284571;28;20032;-74
2022/10/01 10:05:55;;;;;;;11.70;3.33;;;;;;;15.18;100.00;100241.84;5285832;28;20039;-73
2022/10/01 10:08:30;;;;;;;14.27;4.13;;;;;;;15.13;100.00;100239.25;5286896;28;20100;-74
2022/10/01 10:11:07;;;;;;;11.32;4.35;;;;;;;15.06;100.00;100238.97;5283733;28;20399;-76
2022/10/01 10:13:47;;;;;;;13.50;4.88;;;;;;;14.97;100.00;100260.50;5297279;28;20480;-74
2022/10/01 10:16:25;;;;;;;15.63;3.63;;;;;;;14.70;100.00;100264.50;5283502;28;20032;-77
2022/10/01 10:19:03;;;;;;;12.85;4.13;;;;;;;14.55;100.00;100265.88;5288865;28;20024;-77
2022/10/01 10:21:35;;;;;;;13.80;3.80;;;;;;;14.63;100.00;100265.03;5303855;28;20035;-76
2022/10/01 10:24:23;;;;;;;8.77;3.10;;;;;;;14.66;100.00;100278.31;5297870;28;20040;-77
2022/10/01 10:26:59;;;;;;;12.98;3.75;;;;;;;14.79;100.00;100276.50;5281960;28;20033;-77
2022/10/01 10:29:33;;;;;;;10.95;3.13;;;;;;;14.77;100.00;100274.03;5283098;28;20021;-78
2022/10/01 10:32:18;;;;;;;10.15;3.83;;;;;;;14.90;100.00;100280.56;5292776;28;20081;-79
2022/10/01 10:35:12;;;;;;;10.63;4.13;;;;;;;14.94;100.00;100283.53;5288412;28;20392;-77
2022/10/01 10:37:50;;;;;;;9.82;3.40;;;;;;;15.05;100.00;100295.16;5290267;28;20027;-77
2022/10/01 10:40:39;;;;;;;10.32;3.22;;;;;;;15.05;100.00;100286.78;5292538;28;20025;-76
2022/10/01 10:43:35;;;;;;;10.43;4.10;;;;;;;15.16;100.00;100294.47;5282688;28;20115;-71
2022/10/01 10:46:08;;;;;;;10.67;5.03;;;;;;;15.22;100.00;100297.88;5282476;28;20483;-79
2022/10/01 10:48:44;;;;;;;10.30;4.07;;;;;;;15.31;100.00;100311.81;5300632;28;20037;-78
2022/10/01 10:51:15;;;;;;;;;;;;;;;15.42;100.00;100315.91;5299559;28;20051;-74
2022/10/01 10:53:48;;;;;;;9.43;2.78;;;;;;;15.58;100.00;100316.16;5289445;28;20002;-77
2022/10/01 10:56:23;;;;;;;10.23;2.70;;;;;;;15.69;100.00;100328.59;5298345;28;20031;-78
2022/10/01 10:59:07;;;;;;;13.48;3.95;;;;;;;15.75;99.92;100327.28;5295364;28;20379;-77
2022/10/01 11:01:41;;;;;;;15.15;3.15;;;;;;;15.83;100.00;100325.59;5302470;28;20507;-77
2022/10/01 11:04:24;;;;;;;12.10;3.35;;;;;;;15.83;99.42;100323.59;5301713;28;20510;-77
2022/10/01 11:06:58;;;;;;;9.35;3.63;;;;;;;15.85;93.89;100326.06;5302478;28;20054;-73
2022/10/01 11:10:07;;;;;;;8.85;2.45;;;;;;;15.78;86.42;100339.75;5300764;28;20090;-73
2022/10/01 11:12:55;;;;;;;9.25;2.75;;;;;;;15.78;88.32;100351.75;5284819;28;20407;-74
2022/10/01 11:16:15;;;;;;;11.48;3.75;;;;;;;15.90;92.00;100351.03;5293807;28;20428;-74
2022/10/01 11:19:20;;;;;;;10.02;3.28;;;;;;;15.99;88.93;100354.59;5293805;28;20339;-75
2022/10/01 11:22:21;;;;;;;12.00;2.92;;;;;;;16.02;87.75;100365.09;5302631;28;20036;-77
2022/10/01 11:25:22;;;;;;;15.32;4.63;;;;;;;16.06;88.06;100360.47;5301715;28;20020;-75
2022/10/01 11:28:31;;;;;;;7.85;3.20;;;;;;;16.05;83.85;100370.03;5302861;28;20404;-74
2022/10/01 11:31:08;;;;;;;11.93;4.03;;;;;;;16.08;83.93;100383.34;5281766;28;20036;-75
2022/10/01 11:34:10;;;;;;;8.50;3.30;;;;;;;16.16;84.92;100373.25;5282051;28;20024;-74
2022/10/01 11:36:46;;;;;;;6.75;2.72;;;;;;;16.14;83.90;100377.56;5190955;28;20036;-76
2022/10/01 11:39:20;;;;;;;8.20;3.50;;;;;;;16.27;84.97;100370.88;5281259;28;20404;-76
2022/10/01 11:42:00;;;;;;;11.18;2.70;;;;;;;16.37;84.50;100389.25;5281341;28;20089;-75
2022/10/01 11:44:48;;;;;;;11.38;3.05;;;;;;;16.44;82.46;100381.13;5282965;28;21625;-73
2022/10/01 11:47:29;;;;;;;9.38;3.40;;;;;;;16.50;81.87;100374.97;5280843;28;20035;-75
2022/10/01 11:50:11;;;;;;;9.68;3.03;;;;;;;16.57;80.36;100373.63;5293658;28;20036;-73
2022/10/01 11:52:51;;;;;;;11.57;3.40;;;;;;;16.63;80.40;100375.06;5301311;28;20474;-73
2022/10/01 11:58:53;;;;;;;12.85;3.10;;;;;;;16.99;82.00;100384.81;5301548;28;20456;-73
2022/10/01 12:02:07;;;;;;;7.85;2.90;;;;;;;16.92;79.63;100385.38;5308131;28;20491;-73
2022/10/01 12:04:44;;;;;;;10.07;4.47;;;;;;;16.67;77.99;100387.22;5269314;28;20456;-73
2022/10/01 12:07:52;;;;;;;7.55;2.90;;;;;;;16.57;79.13;100407.22;5287078;28;20029;-75
2022/10/01 12:10:37;;;;;;;10.75;3.40;;;;;;;16.53;78.58;100395.88;5267467;28;20048;-75
2022/10/01 12:13:21;;;;;;;10.40;3.45;;;;;;;16.45;79.59;100407.97;5280153;28;20025;-72
2022/10/01 12:16:18;;;;;;;9.25;2.85;;;;;;;16.56;77.73;100405.56;5279434;28;20041;-73
2022/10/01 12:18:56;;;;;;;17.23;5.35;;;;;;;16.72;78.44;100415.81;5270014;28;20035;-74
2022/10/01 12:21:50;;;;;;;12.07;2.95;;;;;;;16.88;76.48;100418.03;5279961;28;20437;-73
2022/10/01 12:24:28;;;;;;;9.02;2.55;;;;;;;16.93;75.56;100423.44;5295207;28;20532;-72
2022/10/01 12:27:25;;;;;;;15.88;6.03;;;;;;;17.10;74.72;100425.22;5297140;28;20012;-73
2022/10/01 12:30:19;;;;;;;8.82;3.00;;;;;;;17.26;75.89;100429.06;5280703;28;20039;-74
2022/10/01 12:33:21;;;;;;;11.13;4.40;;;;;;;17.27;75.99;100439.09;5300830;28;20058;-75
2022/10/01 12:36:20;;;;;;;12.27;3.75;;;;;;;17.05;75.40;100443.09;5300919;28;20135;-74
2022/10/01 12:39:08;;;;;;;7.65;3.17;;;;;;;16.92;75.43;100450.63;5300306;28;20159;-73
2022/10/01 12:41:52;;;;;;;9.60;2.83;;;;;;;16.74;75.62;100449.06;5279897;28;20037;-74
2022/10/01 12:44:36;;;;;;;8.90;2.88;;;;;;;16.59;74.29;100453.31;5280981;28;20051;-73
2022/10/01 12:47:23;;;;;;;9.82;2.95;;;;;;;16.38;73.95;100461.66;5299515;28;20032;-76
2022/10/01 12:50:19;;;;;;;7.80;2.72;;;;;;;16.25;73.39;100462.72;5305007;28;20343;-73
2022/10/01 12:53:02;;;;;;;13.25;4.65;;;;;;;16.21;73.53;100473.78;5301026;28;20503;-73
2022/10/01 12:56:06;;;;;;;10.63;5.20;;;;;;;16.18;72.28;100482.84;5283526;28;20392;-73
2022/10/01 12:59:05;;;;;;;9.15;3.28;;;;;;;16.33;71.31;100470.25;5302522;28;20102;-75
2022/10/01 13:02:33;;;;;;;6.95;2.20;;;;;;;16.64;67.57;100471.88;5312808;28;20048;-75
2022/10/01 13:05:20;;;;;;;6.82;2.80;;;;;;;16.90;66.63;100486.56;5240022;28;20029;-74
2022/10/01 13:08:17;;;;;;;7.35;4.18;;;;;;;17.12;67.08;100484.56;5295374;28;20040;-75
2022/10/01 13:11:02;;;;;;;7.43;2.40;;;;;;;17.14;67.27;100499.03;5305624;28;20077;-72
2022/10/01 13:13:33;;;;;;;8.95;2.85;;;;;;;17.26;67.30;100490.69;5284505;28;20028;-72
2022/10/01 13:16:35;;;;;;;8.38;2.60;;;;;;;17.38;68.86;100493.56;5283360;28;20032;-72
2022/10/01 13:19:16;;;;;;;5.93;2.42;;;;;;;17.25;63.42;100516.25;5283377;28;20052;-72
2022/10/01 13:22:07;;;;;;;3.75;1.52;;;;;;;17.11;63.74;100514.56;5288830;28;20074;-73
2022/10/01 13:24:47;;;;;;;7.03;2.35;;;;;;;17.23;64.60;100501.75;5284025;28;20139;-73
2022/10/01 13:27:36;;;;;;;8.60;2.42;;;;;;;17.32;64.80;100522.94;5283527;28;20098;-71
2022/10/01 13:30:45;;;;;;;10.07;3.67;;;;;;;17.32;61.55;100519.34;5301757;28;20036;-72
2022/10/01 13:33:27;;;;;;;7.47;2.03;;;;;;;17.45;62.73;100525.81;5283927;28;20046;-77
2022/10/01 13:36:04;;;;;;;5.45;1.95;;;;;;;17.36;58.76;100531.50;5283617;28;20029;-74
2022/10/01 13:38:44;;;;;;;7.80;4.13;;;;;;;17.50;60.56;100536.81;5286544;28;20028;-72
2022/10/01 13:41:21;;;;;;;10.80;7.50;;;;;;;17.52;60.35;100529.69;5303022;28;20044;-74
2022/10/01 13:44:07;;;;;;;5.82;2.20;;;;;;;17.47;61.20;100534.69;5300551;28;20454;-74
2022/10/01 13:46:52;;;;;;;7.18;2.38;;;;;;;17.56;61.07;100543.84;5283121;28;20389;-75
2022/10/01 13:49:27;;;;;;;9.07;2.80;;;;;;;17.54;60.31;100549.00;5296760;28;20039;-74
2022/10/01 13:52:01;;;;;;;7.40;2.30;;;;;;;17.49;60.16;100560.41;5286821;28;20068;-74
2022/10/01 13:54:37;;;;;;;5.07;1.90;;;;;;;17.46;59.26;100547.06;5284507;28;20464;-75
2022/10/01 13:57:27;;;;;;;7.45;3.42;;;;;;;17.45;60.54;100551.03;5293770;28;20115;-76
2022/10/01 13:59:58;;;;;;;9.38;5.40;;;;;;;17.48;60.45;100558.75;5299283;28;20064;-75
2022/10/01 14:02:35;;;;;;;11.95;2.63;;;;;;;17.42;61.02;100565.75;5289421;28;20025;-75
2022/10/01 14:05:37;;;;;;;6.82;2.72;;;;;;;17.52;62.46;100563.34;5294357;28;20459;-76
2022/10/01 14:08:16;;;;;;;5.53;2.75;;;;;;;17.30;60.69;100556.09;5289896;28;20050;-76
2022/10/01 14:16:47;;;;;;;8.47;1.90;;;;;;;17.19;61.96;100580.09;5292515;28;20040;-73
2022/10/01 14:19:22;;;;;;;8.18;2.78;;;;;;;17.08;63.27;100582.50;5294172;28;20103;-74
2022/10/01 14:22:20;;;;;;;6.20;3.53;;;;;;;17.01;64.96;100587.00;5287012;28;20042;-68
2022/10/01 14:25:03;;;;;;;8.93;2.33;;;;;;;16.92;64.99;100596.28;5295528;28;20024;-72
2022/10/01 14:28:06;;;;;;;6.72;2.30;;;;;;;16.89;65.08;100601.72;5282163;28;20088;-79
2022/10/01 14:31:03;;;;;;;9.43;3.35;;;;;;;16.81;65.72;100609.00;5283152;28;20036;-78
2022/10/01 14:34:09;;;;;;;6.90;2.42;;;;;;;16.75;66.49;100613.13;5281463;28;20043;-75
2022/10/01 14:36:47;;;;;;;6.68;2.88;;;;;;;16.68;66.02;100610.84;5203850;28;20042;-72
2022/10/01 14:39:22;;;;;;;9.60;2.53;;;;;;;16.73;66.63;100607.03;5277757;28;20071;-72
2022/10/01 14:41:55;;;;;;;8.35;2.40;;;;;;;16.73;66.88;100619.06;5281336;28;20036;-72
2022/10/01 14:44:37;;;;;;;9.35;2.80;;;;;;;16.68;65.78;100621.22;5281239;28;20020;-73
2022/10/01 14:47:12;;;;;;;13.57;8.55;;;;;;;16.70;64.84;100619.75;5280772;28;20025;-73
2022/10/01 14:49:47;;;;;;;11.30;4.65;;;;;;;16.68;64.40;100622.03;5299106;28;20087;-76
2022/10/01 14:52:25;;;;;;;6.13;2.15;;;;;;;16.65;63.64;100624.72;5302517;28;20490;-76
2022/10/01 14:55:01;;;;;;;7.55;2.55;;;;;;;16.66;63.02;100623.53;5302165;28;20055;-71
2022/10/01 14:57:40;;;;;;;9.82;2.65;;;;;;;16.77;63.67;100637.97;5284093;28;20415;-73
2022/10/01 15:00:32;;;;;;;7.93;2.00;;;;;;;16.78;61.89;100642.47;5285830;28;20073;-72
2022/10/01 15:03:06;;;;;;;9.07;3.38;;;;;;;16.65;62.18;100641.50;5301661;28;20063;-72
2022/10/01 15:05:37;;;;;;;12.43;4.10;;;;;;;16.63;63.30;100641.03;5259894;28;20027;-72
2022/10/01 15:08:14;;;;;;;7.38;2.25;;;;;;;16.62;63.68;100645.00;5268365;28;20471;-73
2022/10/01 15:10:51;;;;;;;5.47;2.00;;;;;;;16.51;63.10;100639.75;5280441;28;20029;-68
2022/10/01 15:13:29;;;;;;;9.38;3.03;;;;;;;16.44;62.05;100644.22;5273768;28;20025;-68
2022/10/01 15:16:01;;;;;;;7.28;2.38;;;;;;;16.39;62.63;100652.81;5260281;28;20017;-68
2022/10/01 15:18:35;;;;;;;8.75;2.15;;;;;;;16.38;63.38;100662.34;5260980;28;20499;-70
2022/10/01 15:21:18;;;;;;;8.55;2.83;;;;;;;16.36;64.54;100673.88;5261176;28;20066;-70
2022/10/01 15:23:49;;;;;;;9.05;2.30;;;;;;;16.37;64.55;100669.09;5260244;28;20021;-70
2022/10/01 15:26:26;;;;;;;6.95;2.00;;;;;;;16.43;65.04;100676.16;5260858;28;20491;-75
2022/10/01 15:29:10;;;;;;;8.68;2.63;;;;;;;16.41;65.10;100682.09;5260630;28;20032;-75
2022/10/01 15:31:44;;;;;;;7.82;6.15;;;;;;;16.43;65.26;100681.75;5279485;28;20021;-74
2022/10/01 15:34:19;;;;;;;10.57;3.33;;;;;;;16.35;65.13;100688.19;5281409;28;20024;-75
2022/10/01 15:36:52;;;;;;;9.27;2.78;;;;;;;16.37;65.15;100695.09;5280689;28;20024;-71
2022/10/01 15:39:36;;;;;;;7.25;2.45;;;;;;;16.42;65.45;100699.72;5281773;28;20021;-74
2022/10/01 15:42:21;;;;;;;6.55;2.28;;;;;;;16.38;65.47;100707.13;5281607;28;20439;-72
2022/10/01 15:45:24;;;;;;;8.23;2.22;;;;;;;16.34;66.03;100712.56;5280632;28;20024;-73
2022/10/01 15:47:56;;;;;;;8.93;2.60;;;;;;;16.32;66.33;100714.88;5270024;28;20047;-72
2022/10/01 15:50:38;;;;;;;10.18;5.88;;;;;;;16.28;66.31;100708.28;5280719;28;20364;-74
2022/10/01 15:53:18;;;;;;;8.25;2.22;;;;;;;16.19;66.86;100721.47;5281401;28;20389;-72
2022/10/01 15:55:52;;;;;;;6.95;2.45;;;;;;;16.18;68.05;100717.00;5281537;28;20047;-72
2022/10/01 15:58:35;;;;;;;8.95;2.67;;;;;;;16.16;68.41;100711.78;5280356;28;20112;-73
2022/10/01 16:01:11;;;;;;;7.95;3.05;;;;;;;16.09;69.48;100723.44;5296068;28;20047;-72
2022/10/01 16:03:51;;;;;;;10.95;4.18;;;;;;;16.09;69.70;100728.22;5300954;28;20028;-76
2022/10/01 16:06:35;;;;;;;10.07;3.78;;;;;;;16.00;70.43;100736.63;5302245;28;20374;-77
2022/10/01 16:09:24;;;;;;;11.20;2.90;;;;;;;15.99;71.61;100740.56;5301776;28;20024;-77
2022/10/01 16:12:03;;;;;;;10.32;3.63;;;;;;;15.92;71.15;100740.22;5301013;28;20107;-77
2022/10/01 16:14:43;;;;;;;8.93;3.38;;;;;;;15.84;71.52;100738.25;5302748;28;20526;-77
2022/10/01 16:17:18;;;;;;;7.55;2.50;;;;;;;15.84;72.40;100741.88;5286404;28;20464;-76
2022/10/01 16:19:52;;;;;;;10.90;3.20;;;;;;;15.83;72.41;100739.41;5279790;28;20403;-77
2022/10/01 16:22:36;;;;;;;14.25;3.50;;;;;;;15.79;73.29;100742.03;5299304;28;20626;-77
2022/10/01 16:25:25;;;;;;;11.85;3.95;;;;;;;15.81;73.53;100753.72;5302271;28;20490;-73
2022/10/01 16:28:04;;;;;;;9.88;3.65;;;;;;;15.78;73.83;100756.34;5284480;28;20314;-73
2022/10/01 16:30:35;;;;;;;11.98;3.60;;;;;;;15.77;73.95;100763.06;5284815;28;20035;-72
2022/10/01 16:33:09;;;;;;;10.13;2.80;;;;;;;15.73;73.91;100764.88;5283531;28;20021;-73
2022/10/01 16:35:43;;;;;;;9.30;2.83;;;;;;;15.69;74.21;100775.03;5284762;28;20063;-72
2022/10/01 16:38:14;;;;;;;15.18;4.57;;;;;;;15.65;74.31;100766.50;5291348;28;20024;-72
2022/10/01 16:40:46;;;;;;;9.25;5.25;;;;;;;15.66;75.04;100776.50;5305535;28;20072;-74
2022/10/01 16:43:23;;;;;;;10.95;7.57;;;;;;;15.65;74.92;100778.50;5306302;28;20036;-73
2022/10/01 16:45:56;;;;;;;10.77;3.45;;;;;;;15.65;74.90;100786.88;5305755;28;20033;-73
2022/10/01 16:48:27;;;;;;;11.35;3.70;;;;;;;15.61;75.42;100791.47;5305177;28;20032;-72
2022/10/01 16:51:00;;;;;;;12.35;3.97;;;;;;;15.59;75.81;100790.97;5305890;28;20467;-71
2022/10/01 16:53:31;;;;;;;15.73;5.68;;;;;;;15.57;75.85;100790.47;5305107;28;20038;-72
2022/10/01 16:56:03;;;;;;;10.88;4.32;;;;;;;15.54;76.09;100796.69;5291985;28;20456;-70
2022/10/01 16:58:34;;;;;;;8.18;3.10;;;;;;;15.58;76.64;100800.50;5284596;28;20028;-72
2022/10/01 17:01:07;;;;;;;11.10;3.83;;;;;;;15.50;76.79;100806.91;5312814;28;20066;-73
2022/10/01 17:03:39;;;;;;;10.80;4.07;;;;;;;15.39;76.73;100811.97;5326921;28;20035;-72
2022/10/01 17:06:10;;;;;;;14.15;4.32;;;;;;;15.44;77.06;100816.56;5326907;28;20467;-72
2022/10/01 17:08:41;;;;;;;11.50;4.30;;;;;;;15.40;77.16;100818.38;5311525;28;20035;-73
2022/10/01 17:11:15;;;;;;;12.77;4.38;;;;;;;15.38;77.48;100820.66;5305385;28;20059;-73
2022/10/01 17:13:47;;;;;;;8.95;4.43;;;;;;;15.38;77.17;100820.66;5285728;28;20024;-72
2022/10/01 17:16:19;;;;;;;13.98;5.13;;;;;;;15.35;77.21;100829.69;5283056;28;20051;-72
2022/10/01 17:18:50;;;;;;;9.93;3.30;;;;;;;15.33;76.86;100831.97;5284224;28;20056;-72
2022/10/01 17:21:21;;;;;;;13.32;3.53;;;;;;;15.21;76.22;100844.59;5285952;28;20138;-74
2022/10/01 17:23:53;;;;;;;9.38;3.13;;;;;;;15.17;76.29;100849.16;5304632;28;20036;-72
2022/10/01 17:26:24;;;;;;;9.70;3.25;;;;;;;15.15;75.55;100843.06;5305224;28;20016;-71
2022/10/01 17:28:57;;;;;;;10.23;3.38;;;;;;;15.10;75.25;100853.56;5303501;28;20032;-71
2022/10/01 17:31:29;;;;;;;10.70;2.88;;;;;;;15.07;74.74;100859.78;5305265;28;20132;-72
